Airport ID:KO69
Update Time (UTC):17/02/2020 11:00
Wind Speed (Knots):2
Wind Direction (Magnetic):340
Temperature (°C):5
Dew Point (°C):5
Humidity (%):100
Altimeter (inHg):30.14
Density Altitude (Feet):
Visibility (Miles):10+
Clouds (Hundreds of feet):CLR
Present Weather:
METAR:METAR KO69 171055Z AUTO 00000KT 10SM CLR 05/05 A3013 RMK A01

The data displayed is for advisory purposes only and is not to be used for flight planning or operations.

This page is not automatically refreshed. Reload the page to see current data.